Time;durP1;ratioP1;P1;durP2;ratioP2;P2;SDS_P1;SDS_P2;PMS_P1;PMS_P2;Temp;Humidity;BMP_temperature;BMP_pressure;BME280_temperature;BME280_humidity;BME280_pressure;Samples;Min_cycle;Max_cycle;Signal;HPM_P1;HPM_P2
2023/04/11 04:02:30;;;;;;;0.60;0.10;;;10.40;99.90;;;;;;5122138;23;20593;-77
2023/04/11 04:05:08;;;;;;;0.60;0.10;;;;;;;;;;4937292;29;20481;-76
2023/04/11 04:07:36;;;;;;;0.60;0.10;;;10.30;99.90;;;;;;4939634;29;20440;-75
2023/04/11 04:10:05;;;;;;;0.70;0.20;;;10.20;99.90;;;;;;4942614;29;20492;-77
2023/04/11 04:12:33;;;;;;;0.60;0.10;;;10.10;99.90;;;;;;4945280;29;20468;-77
2023/04/11 04:15:01;;;;;;;0.60;0.10;;;10.10;99.90;;;;;;4940079;29;20470;-77
2023/04/11 04:17:30;;;;;;;0.60;0.10;;;10.00;99.90;;;;;;4930657;29;20865;-76
2023/04/11 04:19:58;;;;;;;0.60;0.13;;;10.00;99.90;;;;;;4940960;29;20483;-76
2023/04/11 04:22:26;;;;;;;0.60;0.10;;;10.00;99.90;;;;;;4937744;29;20476;-75
2023/04/11 04:24:56;;;;;;;0.60;0.10;;;10.00;99.90;;;;;;4939644;29;20511;-76
2023/04/11 04:27:24;;;;;;;0.60;0.10;;;10.00;99.90;;;;;;4940779;29;20493;-77
2023/04/11 04:29:52;;;;;;;0.60;0.10;;;10.00;99.90;;;;;;4939430;29;20459;-77
2023/04/11 04:32:31;;;;;;;0.60;0.10;;;10.10;99.90;;;;;;4929922;29;20595;-78
2023/04/11 04:35:00;;;;;;;0.60;0.10;;;10.10;99.90;;;;;;4936708;29;20465;-77
2023/04/11 04:37:28;;;;;;;0.60;0.10;;;10.20;99.90;;;;;;4937249;29;20485;-77
2023/04/11 04:40:01;;;;;;;0.60;0.20;;;10.20;99.90;;;;;;4940249;29;20456;-77
2023/04/11 04:42:30;;;;;;;0.60;0.10;;;10.20;99.90;;;;;;4942808;29;20456;-78
2023/04/11 04:44:58;;;;;;;2.93;1.83;;;10.20;99.90;;;;;;4938041;29;20951;-77
2023/04/11 04:47:32;;;;;;;1.10;0.93;;;10.10;99.90;;;;;;4934789;29;20440;-77
2023/04/11 04:50:00;;;;;;;0.70;0.20;;;10.00;99.90;;;;;;4928898;29;20459;-77
2023/04/11 04:52:29;;;;;;;0.50;0.10;;;9.90;99.90;;;;;;4929048;29;20540;-73
2023/04/11 04:54:58;;;;;;;0.60;0.20;;;9.80;99.90;;;;;;4934459;29;20461;-76
2023/04/11 04:57:26;;;;;;;0.50;0.20;;;9.70;99.90;;;;;;4935872;29;20477;-77
2023/04/11 04:59:54;;;;;;;0.60;0.20;;;9.70;99.90;;;;;;4938119;29;20485;-77
2023/04/11 05:02:24;;;;;;;0.60;0.20;;;9.60;99.90;;;;;;4934622;29;20485;-77
2023/04/11 05:04:54;;;;;;;0.60;0.10;;;9.60;99.90;;;;;;4935790;29;20454;-76
2023/04/11 05:07:22;;;;;;;0.50;0.10;;;9.70;99.90;;;;;;4935594;29;20455;-77
2023/04/11 05:09:50;;;;;;;0.50;0.10;;;9.70;99.90;;;;;;4937195;29;20462;-77
2023/04/11 05:12:25;;;;;;;2.03;0.97;;;9.70;99.90;;;;;;4934445;29;20466;-78
2023/04/11 05:14:54;;;;;;;0.60;0.20;;;9.80;99.90;;;;;;4937591;29;20458;-78
2023/04/11 05:17:22;;;;;;;4.43;4.23;;;9.80;99.90;;;;;;4937422;29;20454;-78
2023/04/11 05:19:53;;;;;;;0.60;0.10;;;9.80;99.90;;;;;;4939438;29;20453;-78
2023/04/11 05:22:21;;;;;;;0.50;0.10;;;9.80;99.90;;;;;;4940949;29;20464;-79
2023/04/11 05:24:49;;;;;;;0.50;0.10;;;9.90;99.90;;;;;;4941086;29;20440;-77
2023/04/11 05:27:17;;;;;;;0.50;0.10;;;9.90;99.90;;;;;;4940101;29;20551;-77
2023/04/11 05:29:45;;;;;;;2.10;0.83;;;9.90;99.90;;;;;;4944736;29;20455;-78
2023/04/11 05:32:13;;;;;;;0.50;0.10;;;9.90;99.90;;;;;;4964807;28;20817;-77
2023/04/11 05:34:53;;;;;;;0.80;0.60;;;9.80;99.90;;;;;;4941394;29;20456;-78
2023/04/11 05:37:25;;;;;;;0.70;0.30;;;9.80;99.90;;;;;;4940369;29;20444;-77
2023/04/11 05:39:55;;;;;;;0.77;0.40;;;9.70;99.90;;;;;;4939066;29;20484;-78
2023/04/11 05:42:23;;;;;;;0.57;0.10;;;9.70;99.90;;;;;;4935367;29;20489;-78
2023/04/11 05:45:00;;;;;;;0.60;0.20;;;;;;;;;;4938469;29;20824;-77
2023/04/11 05:47:31;;;;;;;0.70;0.30;;;9.70;99.90;;;;;;4940815;29;20496;-77
2023/04/11 05:50:00;;;;;;;0.73;0.60;;;9.70;99.90;;;;;;4937017;29;20812;-77
2023/04/11 05:52:28;;;;;;;0.50;0.10;;;9.70;99.90;;;;;;4940030;29;20472;-76
2023/04/11 05:54:56;;;;;;;0.50;0.10;;;9.70;99.90;;;;;;4941658;29;20480;-76
2023/04/11 05:57:24;;;;;;;0.60;0.27;;;9.60;99.90;;;;;;4942216;29;20456;-77
2023/04/11 05:59:52;;;;;;;1.67;0.83;;;9.60;99.90;;;;;;4953550;29;20483;-77
2023/04/11 06:02:20;;;;;;;2.13;0.33;;;9.60;99.90;;;;;;4961784;28;20467;-76
2023/04/11 06:04:48;;;;;;;1.30;1.20;;;9.60;99.90;;;;;;4960484;29;20510;-76
2023/04/11 06:07:17;;;;;;;0.60;0.10;;;9.70;99.90;;;;;;4961208;29;20838;-75
2023/04/11 06:09:45;;;;;;;1.13;0.40;;;9.70;99.90;;;;;;4960831;29;20466;-77
2023/04/11 06:12:13;;;;;;;2.60;0.30;;;9.80;99.90;;;;;;4963156;28;20474;-78
2023/04/11 06:14:41;;;;;;;0.60;0.10;;;9.80;99.90;;;;;;4951934;29;20937;-77
2023/04/11 06:17:09;;;;;;;0.50;0.10;;;9.90;99.90;;;;;;4945849;29;20910;-76
2023/04/11 06:19:37;;;;;;;0.60;0.10;;;10.00;99.90;;;;;;4955252;29;20509;-76
2023/04/11 06:22:05;;;;;;;3.33;0.97;;;;;;;;;;4940463;29;20469;-76
2023/04/11 06:24:39;;;;;;;0.50;0.10;;;10.00;99.90;;;;;;4945830;29;20532;-77
2023/04/11 06:27:08;;;;;;;0.60;0.23;;;10.10;99.90;;;;;;4941155;29;20491;-77
2023/04/11 06:29:37;;;;;;;2.10;1.93;;;10.10;99.90;;;;;;4941255;29;20982;-77
2023/04/11 06:32:06;;;;;;;0.60;0.10;;;10.10;99.90;;;;;;4939995;29;20481;-76
2023/04/11 06:34:34;;;;;;;0.60;0.10;;;10.20;99.90;;;;;;4939423;29;20812;-77
2023/04/11 06:37:02;;;;;;;0.60;0.10;;;10.30;99.90;;;;;;4942838;29;20464;-75
2023/04/11 06:39:30;;;;;;;0.90;0.50;;;10.30;99.90;;;;;;4960863;29;21006;-77
2023/04/11 06:41:59;;;;;;;0.77;0.63;;;10.30;99.90;;;;;;4959153;28;21021;-77
2023/04/11 06:44:28;;;;;;;22.83;0.87;;;10.30;99.90;;;;;;4957832;29;20519;-76
2023/04/11 06:46:55;;;;;;;0.60;0.10;;;10.40;99.90;;;;;;4940422;29;20441;-76
2023/04/11 06:49:23;;;;;;;0.57;0.10;;;10.40;99.90;;;;;;4938910;29;20486;-77
2023/04/11 06:51:53;;;;;;;0.60;0.20;;;;;;;;;;4939753;29;20473;-77
2023/04/11 06:54:21;;;;;;;0.60;0.10;;;10.50;99.90;;;;;;4941047;29;20527;-75
2023/04/11 06:56:50;;;;;;;7.00;4.83;;;10.60;99.90;;;;;;4941358;29;20548;-76
2023/04/11 06:59:20;;;;;;;1.70;1.13;;;10.70;99.90;;;;;;4942611;29;21006;-78
2023/04/11 07:01:49;;;;;;;0.60;0.10;;;10.50;99.90;;;;;;4962140;28;20574;-76
2023/04/11 07:04:17;;;;;;;0.60;0.10;;;10.50;99.90;;;;;;4961684;29;20439;-76
2023/04/11 07:06:45;;;;;;;0.60;0.10;;;10.70;99.90;;;;;;4962560;29;20550;-77
2023/04/11 07:09:13;;;;;;;0.70;0.40;;;10.70;99.90;;;;;;4964584;29;20448;-77
2023/04/11 07:11:41;;;;;;;0.70;0.53;;;10.80;99.90;;;;;;4966397;28;20468;-76
2023/04/11 07:14:09;;;;;;;0.60;0.10;;;10.90;99.90;;;;;;4966377;29;20452;-76
2023/04/11 07:16:38;;;;;;;5.20;2.83;;;10.90;99.90;;;;;;4963127;29;20515;-78
2023/04/11 07:19:06;;;;;;;0.60;0.10;;;10.90;99.90;;;;;;4947755;29;20491;-77
2023/04/11 07:21:36;;;;;;;0.60;0.10;;;10.90;99.90;;;;;;4943772;29;20536;-77
2023/04/11 07:24:05;;;;;;;0.60;0.10;;;;;;;;;;4943968;29;20490;-77
2023/04/11 07:26:34;;;;;;;1.90;0.20;;;11.00;99.90;;;;;;4947358;29;20434;-76
2023/04/11 07:29:02;;;;;;;0.70;0.30;;;11.00;99.90;;;;;;4964842;29;20480;-77
2023/04/11 07:31:31;;;;;;;0.60;0.20;;;10.90;99.90;;;;;;4968711;28;20456;-76
2023/04/11 07:34:00;;;;;;;0.60;0.10;;;10.90;99.90;;;;;;4952953;29;20931;-77
2023/04/11 07:36:28;;;;;;;0.60;0.10;;;11.00;99.90;;;;;;4948734;29;20462;-77
2023/04/11 07:38:56;;;;;;;0.77;0.63;;;11.00;99.90;;;;;;4971336;29;20440;-77
2023/04/11 07:41:24;;;;;;;0.60;0.10;;;11.10;99.90;;;;;;4976813;28;20541;-76
2023/04/11 07:43:52;;;;;;;6.83;1.60;;;11.10;99.90;;;;;;4965204;28;20457;-78
2023/04/11 07:46:20;;;;;;;0.70;0.30;;;11.10;99.90;;;;;;4958545;29;20441;-78
2023/04/11 07:48:48;;;;;;;0.60;0.30;;;11.00;99.90;;;;;;4944373;29;20490;-79
2023/04/11 07:51:17;;;;;;;0.90;0.70;;;11.00;99.90;;;;;;4957165;28;20477;-77
2023/04/11 07:53:45;;;;;;;0.63;0.23;;;11.00;99.90;;;;;;4960904;29;20457;-78
2023/04/11 07:56:15;;;;;;;0.60;0.20;;;11.00;99.90;;;;;;4959325;29;20450;-76
2023/04/11 07:58:43;;;;;;;0.60;0.10;;;11.00;99.90;;;;;;4956516;29;20448;-77
2023/04/11 08:01:19;;;;;;;0.60;0.10;;;11.20;99.90;;;;;;4940944;29;20493;-77
2023/04/11 08:03:47;;;;;;;0.60;0.10;;;11.30;99.90;;;;;;4933433;29;20461;-76
2023/04/11 08:06:17;;;;;;;0.60;0.10;;;11.40;99.90;;;;;;4940227;29;20458;-75
2023/04/11 08:08:45;;;;;;;6.40;2.83;;;11.50;99.90;;;;;;4934970;29;20468;-76
2023/04/11 08:11:13;;;;;;;0.60;0.20;;;11.40;99.90;;;;;;4917203;29;20526;-75
2023/04/11 08:13:41;;;;;;;0.70;0.40;;;11.40;99.90;;;;;;4940479;29;20517;-75
2023/04/11 08:16:11;;;;;;;3.00;1.07;;;11.30;99.90;;;;;;4936104;29;20508;-76
2023/04/11 08:18:40;;;;;;;0.60;0.10;;;11.30;99.90;;;;;;4936192;29;20460;-76
2023/04/11 08:21:10;;;;;;;0.90;0.23;;;11.50;99.90;;;;;;4936176;29;20497;-73
2023/04/11 08:23:40;;;;;;;0.60;0.10;;;11.50;99.90;;;;;;4952535;29;20496;-75
2023/04/11 08:26:10;;;;;;;0.97;0.57;;;11.50;99.90;;;;;;4955802;28;20813;-75
2023/04/11 08:28:38;;;;;;;0.60;0.10;;;11.60;99.90;;;;;;4954978;28;20464;-75
2023/04/11 08:31:11;;;;;;;1.47;0.50;;;11.60;99.90;;;;;;4955204;28;20467;-75
2023/04/11 08:33:40;;;;;;;0.60;0.10;;;11.50;99.90;;;;;;4943099;29;20492;-75
2023/04/11 08:36:09;;;;;;;0.77;0.30;;;;;;;;;;4952213;29;20472;-75
2023/04/11 08:38:40;;;;;;;0.60;0.10;;;11.50;99.90;;;;;;4935790;29;20471;-74
2023/04/11 08:41:08;;;;;;;0.60;0.10;;;11.60;99.90;;;;;;4936008;29;20516;-75
2023/04/11 08:43:37;;;;;;;0.90;0.70;;;11.50;99.90;;;;;;4935968;29;20453;-74
2023/04/11 08:46:07;;;;;;;0.60;0.10;;;11.50;99.90;;;;;;4937210;29;20512;-75
2023/04/11 08:48:35;;;;;;;0.60;0.20;;;11.50;99.90;;;;;;4936749;29;20825;-75
2023/04/11 08:51:03;;;;;;;1.10;0.83;;;11.60;99.90;;;;;;4936553;29;20469;-75
2023/04/11 08:53:35;;;;;;;0.60;0.10;;;11.60;99.90;;;;;;4936211;29;20464;-75
2023/04/11 08:56:05;;;;;;;0.80;0.20;;;11.70;99.90;;;;;;4923282;29;20950;-75
2023/04/11 08:58:33;;;;;;;0.60;0.10;;;11.90;99.90;;;;;;4920734;29;20442;-75
2023/04/11 09:01:24;;;;;;;2.10;1.80;;;11.90;99.90;;;;;;4922032;29;20500;-75
2023/04/11 09:03:53;;;;;;;0.60;0.10;;;11.90;99.90;;;;;;4957504;29;20558;-75
2023/04/11 09:06:21;;;;;;;0.60;0.10;;;11.90;99.90;;;;;;4943082;29;20446;-75
2023/04/11 09:08:49;;;;;;;0.80;0.27;;;12.00;99.90;;;;;;4935827;29;20449;-75
2023/04/11 09:11:19;;;;;;;0.60;0.10;;;11.70;99.90;;;;;;4946756;29;20531;-74
2023/04/11 09:13:47;;;;;;;1.13;0.83;;;11.70;99.90;;;;;;4943151;29;20457;-74
2023/04/11 09:16:15;;;;;;;0.60;0.10;;;11.80;99.90;;;;;;4940680;29;20446;-74
2023/04/11 09:18:45;;;;;;;8.07;2.83;;;11.90;99.90;;;;;;4944135;29;20454;-75
2023/04/11 09:21:15;;;;;;;2.30;0.30;;;11.80;99.90;;;;;;4944222;28;20515;-74
2023/04/11 09:23:43;;;;;;;0.60;0.10;;;11.90;99.90;;;;;;4939954;29;20454;-73
2023/04/11 09:26:12;;;;;;;0.70;0.37;;;11.90;99.90;;;;;;4940370;29;20961;-74
2023/04/11 09:28:43;;;;;;;0.60;0.20;;;12.10;99.90;;;;;;4941177;29;20813;-75
2023/04/11 09:31:11;;;;;;;7.60;0.50;;;12.20;99.90;;;;;;4951413;28;20476;-74
2023/04/11 09:33:52;;;;;;;0.60;0.10;;;12.20;99.90;;;;;;4954281;29;20458;-74
2023/04/11 09:36:22;;;;;;;0.60;0.10;;;12.20;99.90;;;;;;4950679;29;20493;-75
2023/04/11 09:38:50;;;;;;;8.30;1.30;;;12.50;99.90;;;;;;4945078;29;20885;-75
2023/04/11 09:41:30;;;;;;;3.70;2.40;;;12.50;99.90;;;;;;4942137;29;20489;-76
2023/04/11 09:44:00;;;;;;;1.27;0.30;;;12.50;99.90;;;;;;4940528;29;20458;-74
2023/04/11 09:46:28;;;;;;;0.60;0.10;;;12.30;99.90;;;;;;4940923;29;20450;-74
2023/04/11 09:48:56;;;;;;;4.30;0.53;;;12.40;99.90;;;;;;4945004;29;20445;-73
2023/04/11 09:51:24;;;;;;;1.90;1.80;;;12.60;99.90;;;;;;4947512;29;20491;-74
2023/04/11 09:54:03;;;;;;;0.60;0.20;;;12.60;99.90;;;;;;4937589;29;20956;-73
2023/04/11 09:56:33;;;;;;;3.13;0.60;;;12.80;99.90;;;;;;4940414;29;20452;-74
2023/04/11 09:59:04;;;;;;;0.70;0.20;;;12.70;99.90;;;;;;4930364;29;20569;-74
2023/04/11 10:01:32;;;;;;;1.43;1.33;;;12.50;99.90;;;;;;4939568;29;20572;-75
2023/04/11 10:04:00;;;;;;;0.60;0.20;;;12.60;99.90;;;;;;4936468;29;20984;-75
2023/04/11 10:06:32;;;;;;;3.00;1.27;;;12.60;99.90;;;;;;4942255;29;20518;-74
2023/04/11 10:09:09;;;;;;;0.60;0.10;;;12.50;99.90;;;;;;4938947;29;20454;-75
2023/04/11 10:11:41;;;;;;;0.60;0.10;;;12.50;99.90;;;;;;4937812;29;20472;-74
2023/04/11 10:14:52;;;;;;;0.60;0.20;;;12.60;99.90;;;;;;4967106;23;20444;-74
2023/04/11 10:17:21;;;;;;;0.60;0.20;;;12.60;99.90;;;;;;4952070;29;20473;-76
2023/04/11 10:19:56;;;;;;;11.93;1.13;;;13.00;99.90;;;;;;4962686;28;20933;-76
2023/04/11 10:23:00;;;;;;;0.60;0.10;;;13.00;99.90;;;;;;4957337;29;20700;-77
2023/04/11 10:25:31;;;;;;;0.90;0.80;;;13.30;99.90;;;;;;4881750;29;20508;-76
2023/04/11 10:28:02;;;;;;;0.60;0.10;;;13.30;99.90;;;;;;4939469;29;20462;-75
2023/04/11 10:31:00;;;;;;;0.60;0.10;;;13.10;99.90;;;;;;4943270;29;20489;-76
2023/04/11 10:33:28;;;;;;;0.60;0.10;;;13.10;99.90;;;;;;4938533;29;20487;-76
2023/04/11 10:35:57;;;;;;;0.60;0.10;;;13.10;99.90;;;;;;4934911;29;20463;-76
2023/04/11 10:38:47;;;;;;;0.60;0.10;;;13.10;99.90;;;;;;4941237;29;20442;-77
2023/04/11 10:41:18;;;;;;;0.60;0.30;;;12.70;99.90;;;;;;4937486;29;20618;-76
2023/04/11 10:43:47;;;;;;;0.60;0.10;;;12.70;99.90;;;;;;4942548;29;20474;-76
2023/04/11 10:46:20;;;;;;;0.60;0.10;;;12.50;99.90;;;;;;4940835;29;20480;-76
2023/04/11 10:48:58;;;;;;;5.17;1.57;;;12.60;99.90;;;;;;4925098;29;20819;-77
2023/04/11 10:51:27;;;;;;;0.60;0.10;;;12.60;99.90;;;;;;4940543;29;20533;-76
2023/04/11 10:53:58;;;;;;;0.60;0.20;;;12.70;99.90;;;;;;4939910;29;20489;-77
2023/04/11 10:56:59;;;;;;;0.60;0.20;;;12.70;99.90;;;;;;4939494;29;20481;-75
2023/04/11 11:00:00;;;;;;;0.60;0.20;;;12.80;99.90;;;;;;4918896;29;20530;-75
2023/04/11 11:02:38;;;;;;;0.70;0.20;;;12.90;99.90;;;;;;4918229;29;20549;-74
2023/04/11 11:05:17;;;;;;;0.60;0.17;;;12.70;99.90;;;;;;4921160;29;20473;-75
2023/04/11 11:07:50;;;;;;;0.60;0.10;;;12.70;99.90;;;;;;4939725;29;21004;-76
2023/04/11 11:10:40;;;;;;;0.80;0.37;;;13.20;99.90;;;;;;4944890;29;20453;-76
2023/04/11 11:13:08;;;;;;;0.60;0.10;;;13.40;99.90;;;;;;4939994;29;20546;-76
2023/04/11 11:15:37;;;;;;;0.60;0.20;;;13.60;99.90;;;;;;4941334;29;20505;-77
2023/04/11 11:18:08;;;;;;;0.60;0.10;;;13.60;99.90;;;;;;4940265;29;20984;-77
2023/04/11 11:20:37;;;;;;;43.90;2.27;;;13.80;99.90;;;;;;4941665;29;20453;-76
2023/04/11 11:23:06;;;;;;;1.07;0.37;;;13.80;99.90;;;;;;4938590;29;20949;-77
2023/04/11 11:25:35;;;;;;;0.60;0.10;;;13.70;99.90;;;;;;4938886;29;21006;-76
2023/04/11 11:28:04;;;;;;;8.83;0.77;;;13.60;99.90;;;;;;4938403;29;20527;-76
2023/04/11 11:30:32;;;;;;;0.60;0.10;;;13.60;99.90;;;;;;4937890;29;20516;-78
2023/04/11 11:33:16;;;;;;;1.73;0.30;;;13.70;99.90;;;;;;4941393;29;20452;-76
2023/04/11 11:35:50;;;;;;;0.60;0.10;;;13.70;94.60;;;;;;4945617;29;20577;-77
2023/04/11 11:38:19;;;;;;;0.60;0.10;;;13.70;98.50;;;;;;4944003;29;20457;-76
2023/04/11 11:40:48;;;;;;;0.60;0.10;;;13.80;98.20;;;;;;4940523;29;20785;-75
2023/04/11 11:43:16;;;;;;;0.60;0.10;;;14.00;97.90;;;;;;4938873;29;20815;-76
2023/04/11 11:45:45;;;;;;;0.60;0.10;;;14.40;90.90;;;;;;4933646;29;20463;-77
2023/04/11 11:48:28;;;;;;;0.60;0.20;;;14.40;96.40;;;;;;4938675;29;20784;-75
2023/04/11 11:50:57;;;;;;;1.00;0.40;;;14.60;79.10;;;;;;4938871;29;20806;-77
2023/04/11 11:53:25;;;;;;;0.60;0.10;;;14.60;73.90;;;;;;4941682;29;20460;-76
2023/04/11 11:55:53;;;;;;;0.60;0.10;;;14.40;49.60;;;;;;4939414;29;20519;-77
2023/04/11 11:58:21;;;;;;;0.60;0.10;;;14.40;59.80;;;;;;4939704;29;20483;-76
2023/04/11 12:00:51;;;;;;;0.60;0.10;;;14.40;56.80;;;;;;4932038;29;20541;-76
2023/04/11 12:03:23;;;;;;;0.60;0.20;;;14.40;67.80;;;;;;4919974;29;20486;-77
2023/04/11 12:05:56;;;;;;;2.40;0.37;;;14.20;63.10;;;;;;4931889;29;20488;-75
2023/04/11 12:08:25;;;;;;;0.80;0.20;;;14.20;92.70;;;;;;4941510;29;20457;-75
2023/04/11 12:10:53;;;;;;;0.60;0.10;;;14.10;96.10;;;;;;4939662;29;20511;-76
2023/04/11 12:13:24;;;;;;;0.60;0.10;;;14.10;98.30;;;;;;4938294;29;20453;-76
2023/04/11 12:15:53;;;;;;;0.60;0.10;;;14.10;98.70;;;;;;4937813;29;20483;-76
2023/04/11 12:18:24;;;;;;;0.60;0.10;;;14.20;99.90;;;;;;4935460;29;20451;-76
2023/04/11 12:20:52;;;;;;;0.60;0.10;;;14.20;99.90;;;;;;4938356;29;20446;-76
2023/04/11 12:23:21;;;;;;;0.60;0.10;;;14.30;99.90;;;;;;4939480;29;20571;-74
2023/04/11 12:25:49;;;;;;;0.60;0.10;;;14.10;91.40;;;;;;4937622;29;20581;-76
2023/04/11 12:28:17;;;;;;;0.60;0.20;;;14.10;95.10;;;;;;4938465;29;20478;-76
2023/04/11 12:30:44;;;;;;;0.83;0.50;;;14.10;93.40;;;;;;4940010;29;20452;-75
2023/04/11 12:33:12;;;;;;;0.60;0.20;;;14.00;79.50;;;;;;4938316;29;20534;-77
2023/04/11 12:35:49;;;;;;;0.60;0.10;;;;;;;;;;4927873;29;20467;-76
2023/04/11 12:38:17;;;;;;;0.60;0.10;;;13.90;78.20;;;;;;4928155;29;20454;-73
2023/04/11 12:40:46;;;;;;;0.70;0.20;;;13.90;67.60;;;;;;4922336;29;20871;-76
2023/04/11 12:43:14;;;;;;;0.60;0.10;;;14.00;56.20;;;;;;4922629;29;20931;-77
2023/04/11 12:45:42;;;;;;;0.90;0.20;;;14.00;55.40;;;;;;4935952;29;20579;-75
2023/04/11 12:48:09;;;;;;;0.80;0.20;;;14.10;66.90;;;;;;4940817;29;20445;-76
2023/04/11 12:50:37;;;;;;;0.80;0.20;;;14.10;67.00;;;;;;4943095;29;20447;-76
2023/04/11 12:53:07;;;;;;;0.80;0.30;;;14.00;58.40;;;;;;4943728;29;20436;-77
2023/04/11 12:55:34;;;;;;;0.60;0.20;;;14.00;59.00;;;;;;4942814;29;20569;-76
2023/04/11 12:58:03;;;;;;;0.60;0.10;;;14.00;69.60;;;;;;4940109;29;20448;-75
2023/04/11 13:00:30;;;;;;;0.80;0.30;;;14.10;73.30;;;;;;4941887;29;20854;-74
2023/04/11 13:02:58;;;;;;;3.90;0.60;;;14.40;77.00;;;;;;4942449;29;20906;-76
2023/04/11 13:05:27;;;;;;;0.80;0.70;;;14.50;76.80;;;;;;4942626;29;20486;-75
2023/04/11 13:07:54;;;;;;;1.13;0.37;;;14.50;90.80;;;;;;4942794;29;20462;-77
2023/04/11 13:10:24;;;;;;;0.60;0.10;;;14.40;83.50;;;;;;4941479;29;20463;-76
2023/04/11 13:12:55;;;;;;;0.60;0.10;;;14.30;82.60;;;;;;4941840;29;20471;-74
2023/04/11 13:15:25;;;;;;;0.60;0.10;;;14.30;71.30;;;;;;4940144;29;20782;-76
2023/04/11 13:17:54;;;;;;;0.70;0.20;;;14.30;85.00;;;;;;4951521;29;20453;-76
2023/04/11 13:20:22;;;;;;;0.60;0.30;;;14.30;85.30;;;;;;4947155;29;20513;-76
2023/04/11 13:22:49;;;;;;;0.60;0.10;;;14.40;85.70;;;;;;4949274;29;20829;-76
2023/04/11 13:25:18;;;;;;;0.70;0.20;;;14.60;76.50;;;;;;4946911;29;20484;-75
2023/04/11 13:27:47;;;;;;;0.60;0.10;;;14.80;76.40;;;;;;4940648;29;20443;-76
2023/04/11 13:30:15;;;;;;;0.60;0.20;;;15.10;67.50;;;;;;4940247;29;20543;-77
2023/04/11 13:32:43;;;;;;;0.60;0.10;;;15.10;78.90;;;;;;4937195;29;20928;-75
2023/04/11 13:35:12;;;;;;;0.60;0.20;;;15.10;70.40;;;;;;4941564;29;20513;-75
2023/04/11 13:37:40;;;;;;;0.60;0.10;;;15.10;76.50;;;;;;4941757;29;20892;-76
2023/04/11 13:40:11;;;;;;;1.53;0.20;;;14.90;58.90;;;;;;4943817;29;20482;-74
2023/04/11 13:42:39;;;;;;;0.60;0.10;;;14.70;59.20;;;;;;4941923;29;20525;-76
2023/04/11 13:45:09;;;;;;;3.47;2.47;;;14.80;60.00;;;;;;4941000;29;21041;-76
2023/04/11 13:47:37;;;;;;;0.70;0.40;;;14.80;70.30;;;;;;4941690;29;20896;-75
2023/04/11 13:50:10;;;;;;;0.60;0.10;;;14.80;65.00;;;;;;4941532;29;20451;-76
2023/04/11 13:52:38;;;;;;;0.60;0.10;;;14.90;68.50;;;;;;4940320;29;20457;-75
2023/04/11 13:55:06;;;;;;;0.60;0.20;;;15.10;41.80;;;;;;4940463;29;20567;-77
2023/04/11 13:57:34;;;;;;;0.73;0.73;;;15.10;51.20;;;;;;4939401;29;20461;-76
2023/04/11 14:00:08;;;;;;;0.60;0.10;;;15.00;54.50;;;;;;4940093;29;20457;-76
2023/04/11 14:02:38;;;;;;;0.60;0.10;;;15.00;54.80;;;;;;4940052;29;20516;-75
2023/04/11 14:05:08;;;;;;;0.60;0.10;;;15.10;46.10;;;;;;4939558;29;20477;-75
2023/04/11 14:07:36;;;;;;;0.60;0.10;;;15.10;56.90;;;;;;4938818;29;20767;-76
2023/04/11 14:10:05;;;;;;;0.60;0.10;;;15.00;68.50;;;;;;4940393;29;20794;-76
2023/04/11 14:12:33;;;;;;;0.60;0.10;;;14.80;54.30;;;;;;4942920;29;20521;-76
2023/04/11 14:15:00;;;;;;;0.60;0.20;;;14.70;46.80;;;;;;4942213;29;20896;-76
2023/04/11 14:17:29;;;;;;;0.60;0.10;;;14.80;45.30;;;;;;4944742;29;20514;-76
2023/04/11 14:19:59;;;;;;;0.60;0.20;;;14.80;56.10;;;;;;4953413;29;20456;-75
2023/04/11 14:22:27;;;;;;;1.13;1.03;;;14.60;44.30;;;;;;4952920;29;20441;-75
2023/04/11 14:24:55;;;;;;;0.60;0.10;;;14.50;45.80;;;;;;4944002;29;20481;-76
2023/04/11 14:27:23;;;;;;;0.60;0.10;;;14.50;57.50;;;;;;4931197;29;20450;-76
2023/04/11 14:29:50;;;;;;;0.60;0.10;;;14.90;50.20;;;;;;4930522;29;20464;-77
2023/04/11 14:32:18;;;;;;;0.60;0.10;;;14.90;50.90;;;;;;4933864;29;20453;-77
2023/04/11 14:34:46;;;;;;;0.60;0.10;;;15.20;51.80;;;;;;4950633;29;20503;-77
2023/04/11 14:37:15;;;;;;;0.60;0.10;;;15.20;49.90;;;;;;4948403;29;20446;-76
2023/04/11 14:39:43;;;;;;;0.60;0.10;;;15.20;59.60;;;;;;4947105;29;20457;-76
2023/04/11 14:42:11;;;;;;;1.47;0.63;;;15.20;50.40;;;;;;4948212;29;20450;-76
2023/04/11 14:44:39;;;;;;;0.60;0.10;;;15.20;47.00;;;;;;4949427;29;20500;-76
2023/04/11 14:47:07;;;;;;;0.60;0.10;;;15.20;57.10;;;;;;4951838;29;20457;-76
2023/04/11 14:49:35;;;;;;;0.60;0.10;;;15.20;60.30;;;;;;4949009;29;20446;-76
2023/04/11 14:52:03;;;;;;;0.60;0.10;;;15.10;52.70;;;;;;4952301;29;20461;-75
2023/04/11 14:54:32;;;;;;;0.60;0.20;;;15.00;43.20;;;;;;4951400;29;20545;-75
2023/04/11 14:57:01;;;;;;;0.60;0.10;;;15.00;53.20;;;;;;4946174;29;20468;-76
2023/04/11 14:59:29;;;;;;;0.60;0.10;;;;;;;;;;4940540;29;20457;-75
2023/04/11 15:01:57;;;;;;;0.70;0.27;;;15.00;42.40;;;;;;4928504;29;20482;-76
2023/04/11 15:04:25;;;;;;;0.60;0.10;;;14.90;44.50;;;;;;4923041;29;20498;-76
2023/04/11 15:06:53;;;;;;;0.60;0.10;;;14.90;55.20;;;;;;4922338;29;20525;-76
2023/04/11 15:09:21;;;;;;;0.60;0.10;;;14.70;49.80;;;;;;4939502;29;20552;-76
2023/04/11 15:11:50;;;;;;;0.60;0.20;;;14.70;49.40;;;;;;4940544;29;20490;-76
2023/04/11 15:14:18;;;;;;;0.60;0.10;;;14.40;51.10;;;;;;4939288;29;20481;-76
2023/04/11 15:16:46;;;;;;;0.60;0.20;;;14.40;62.90;;;;;;4938980;29;20465;-75
2023/04/11 15:19:14;;;;;;;0.90;0.20;;;14.30;65.20;;;;;;4938429;29;20456;-76
2023/04/11 15:21:45;;;;;;;0.60;0.10;;;14.20;55.30;;;;;;4937747;29;20816;-75
2023/04/11 15:24:12;;;;;;;0.73;0.30;;;14.00;56.40;;;;;;4937277;29;20495;-76
2023/04/11 15:26:43;;;;;;;0.70;0.50;;;14.00;55.30;;;;;;4937041;29;20443;-75
2023/04/11 15:29:14;;;;;;;0.60;0.10;;;14.00;56.10;;;;;;4936072;29;20461;-75
2023/04/11 15:31:42;;;;;;;0.80;0.30;;;14.00;67.20;;;;;;4937023;29;20467;-75
2023/04/11 15:34:12;;;;;;;0.60;0.10;;;14.20;62.50;;;;;;4939939;29;20449;-77
2023/04/11 15:36:43;;;;;;;0.60;0.20;;;14.20;73.30;;;;;;4939592;29;20792;-75
2023/04/11 15:39:11;;;;;;;0.60;0.10;;;14.10;76.90;;;;;;4939190;29;20955;-74
2023/04/11 15:41:40;;;;;;;0.60;0.10;;;14.10;75.20;;;;;;4940841;29;20459;-74
2023/04/11 15:44:08;;;;;;;0.60;0.10;;;14.10;65.50;;;;;;4942927;29;20494;-76
2023/04/11 15:46:38;;;;;;;0.60;0.10;;;14.20;65.70;;;;;;4944600;29;20521;-76
2023/04/11 15:49:06;;;;;;;0.60;0.10;;;;;;;;;;4938759;29;20456;-76
2023/04/11 15:51:35;;;;;;;0.60;0.10;;;;;;;;;;4939106;29;20447;-75
2023/04/11 15:54:03;;;;;;;0.60;0.10;;;14.60;58.20;;;;;;4937685;29;20961;-75
2023/04/11 15:56:32;;;;;;;0.60;0.10;;;14.60;68.80;;;;;;4936768;29;20554;-76
2023/04/11 15:58:59;;;;;;;0.60;0.10;;;14.60;65.40;;;;;;4936885;29;20463;-76
2023/04/11 16:01:28;;;;;;;0.60;0.10;;;14.60;66.30;;;;;;4937634;29;21051;-78
2023/04/11 16:03:58;;;;;;;0.60;0.10;;;14.70;55.90;;;;;;4936294;29;20481;-76
2023/04/11 16:06:26;;;;;;;0.60;0.20;;;14.70;67.60;;;;;;4939016;29;20452;-77
2023/04/11 16:08:54;;;;;;;0.60;0.10;;;15.10;67.80;;;;;;4940942;29;20450;-78
2023/04/11 16:11:22;;;;;;;1.70;1.13;;;15.80;69.40;;;;;;4936205;29;20463;-78
2023/04/11 16:13:50;;;;;;;0.60;0.10;;;17.00;57.40;;;;;;4937915;29;20507;-76
2023/04/11 16:16:19;;;;;;;0.60;0.10;;;17.20;56.70;;;;;;4974149;23;20505;-73
2023/04/11 16:18:47;;;;;;;6.23;2.00;;;17.40;54.90;;;;;;4945185;29;20506;-73
2023/04/11 16:21:16;;;;;;;0.60;0.10;;;17.40;61.90;;;;;;4955095;28;20930;-72
2023/04/11 16:23:44;;;;;;;0.60;0.10;;;17.40;53.10;;;;;;4955008;28;20496;-73
2023/04/11 16:26:12;;;;;;;0.70;0.50;;;17.70;53.30;;;;;;4939883;28;20543;-74
2023/04/11 16:28:40;;;;;;;0.60;0.10;;;18.60;51.70;;;;;;4935936;29;20451;-74
2023/04/11 16:31:08;;;;;;;0.60;0.10;;;16.80;75.10;;;;;;4948056;29;20817;-74
2023/04/11 16:33:36;;;;;;;0.60;0.10;;;20.20;40.00;;;;;;4954399;29;20956;-72
2023/04/11 16:36:04;;;;;;;0.60;0.10;;;20.20;40.30;;;;;;4954687;28;20570;-71
2023/04/11 16:38:34;;;;;;;0.60;0.10;;;;;;;;;;4955329;28;20443;-74
2023/04/11 16:41:02;;;;;;;1.80;1.70;;;20.80;36.30;;;;;;4957715;28;20451;-75
2023/04/11 16:43:30;;;;;;;0.60;0.20;;;21.30;43.80;;;;;;4956152;28;20543;-74
2023/04/11 16:45:57;;;;;;;0.60;0.20;;;21.70;27.80;;;;;;4954709;28;20509;-73
2023/04/11 16:48:25;;;;;;;0.60;0.10;;;21.60;37.10;;;;;;4954746;28;21012;-73
2023/04/11 16:50:53;;;;;;;0.60;0.10;;;21.20;35.40;;;;;;4954600;28;20455;-73
2023/04/11 16:53:21;;;;;;;0.60;0.10;;;21.10;23.80;;;;;;4955368;29;20443;-72
2023/04/11 16:55:51;;;;;;;0.60;0.10;;;21.00;22.20;;;;;;4954600;28;20877;-75
2023/04/11 16:58:19;;;;;;;0.60;0.10;;;20.70;30.40;;;;;;4954627;28;20570;-72
2023/04/11 17:00:47;;;;;;;0.60;0.20;;;20.50;29.20;;;;;;4954327;28;20673;-74
2023/04/11 17:03:16;;;;;;;0.60;0.10;;;19.70;28.60;;;;;;4954567;28;20452;-73
2023/04/11 17:05:45;;;;;;;3.93;3.73;;;19.10;21.50;;;;;;4953964;28;20490;-73